Donvivant — WDF7184 — position and weather

sailwx.info

Track history (hours):
 
Tides and Currents Weather Stations Pressure Air Temp Water Temp Dewpoint Dewpoint Depression Visibility Wind Speed Wind Dir Waves Ship Positions

Donvivant

Owner: maylotte, donald h, green cove springs, FL. More information available from US FCC via Universal Licensing System and Coast Guard Vessel Documentation Center.

Last reported at 2014-Sep-23 06:11 UTC. Time now 2014-Oct-31 10:33 UTC.
Position N 36°57' E 025°59'.
Warning: this ship's position is 38 days out of date.

Length 15 m.

Type: Pleasure craft. MMSI: 367481910.

Date/timePositionNaut miles runAvg speedWind from/ knotsBaromVisibWave heightAir tempDewpointWater temp
2014-Sep-23 06:11N 36°57' E 025°59'5 7.3
2014-Sep-23 05:27N 36°54' E 025°53'5 0.3
2014-Sep-22 12:31N 36°50' E 025°50'7 6.2
2014-Sep-22 11:28N 36°50' E 025°42'6 6.3
2014-Sep-22 10:33N 36°50' E 025°35'6 5.1
2014-Sep-22 09:25N 36°53' E 025°28'5 5.6
2014-Sep-22 08:33N 36°54' E 025°22'6 5.8
2014-Sep-22 07:33N 36°55' E 025°15'6 5.7
2014-Sep-22 06:33N 36°55' E 025°08'6 5.6
2014-Sep-22 05:31N 36°58' E 025°02'0 0.1
2014-Sep-22 04:24N 36°58' E 025°02'0 0.0
2014-Sep-22 03:30N 36°58' E 025°02'0 0.0
2014-Sep-22 02:30N 36°58' E 025°02'0 0.0
2014-Sep-22 01:30N 36°58' E 025°02'0 0.0
2014-Sep-22 00:30N 36°58' E 025°02'0 0.0
2014-Sep-21 23:30N 36°58' E 025°02'0 0.0
2014-Sep-21 22:18N 36°58' E 025°02'0 0.0
2014-Sep-21 21:30N 36°58' E 025°02'0 0.0
2014-Sep-21 20:30N 36°58' E 025°02'0 0.0
2014-Sep-21 19:30N 36°58' E 025°02'0 0.0
2014-Sep-21 18:24N 36°58' E 025°02'0 0.0
2014-Sep-21 17:30N 36°58' E 025°02'0 0.0
2014-Sep-21 16:30N 36°58' E 025°02'0 0.0
2014-Sep-21 15:30N 36°58' E 025°02'1 1.5
2014-Sep-21 14:32N 36°57' E 025°02'2 2.5
2014-Sep-21 13:33N 36°56' E 024°59'6 5.9
2014-Sep-21 12:32N 36°55' E 024°51'  
Track history (hours):
 
Tides and Currents Weather Stations Pressure Air Temp Water Temp Dewpoint Dewpoint Depression Visibility Wind Speed Wind Dir Waves Ship Positions

Donvivant

Owner: maylotte, donald h, green cove springs, FL. More information available from US FCC via Universal Licensing System and Coast Guard Vessel Documentation Center.

Last reported at 2014-Sep-23 06:11 UTC. Time now 2014-Oct-31 10:33 UTC.
Position N 36°57' E 025°59'.
Warning: this ship's position is 38 days out of date.

Length 15 m.

Type: Pleasure craft. MMSI: 367481910.

Date/timePositionNaut miles runAvg speedWind from/ knotsBaromVisibWave heightAir tempDewpointWater temp
2014-Sep-23 06:11N 36°57' E 025°59'5 7.3
2014-Sep-23 05:27N 36°54' E 025°53'5 0.3
2014-Sep-22 12:31N 36°50' E 025°50'7 6.2
2014-Sep-22 11:28N 36°50' E 025°42'6 6.3
2014-Sep-22 10:33N 36°50' E 025°35'6 5.1
2014-Sep-22 09:25N 36°53' E 025°28'5 5.6
2014-Sep-22 08:33N 36°54' E 025°22'6 5.8
2014-Sep-22 07:33N 36°55' E 025°15'6 5.7
2014-Sep-22 06:33N 36°55' E 025°08'6 5.6
2014-Sep-22 05:31N 36°58' E 025°02'0 0.1
2014-Sep-22 04:24N 36°58' E 025°02'0 0.0
2014-Sep-22 03:30N 36°58' E 025°02'0 0.0
2014-Sep-22 02:30N 36°58' E 025°02'0 0.0
2014-Sep-22 01:30N 36°58' E 025°02'0 0.0
2014-Sep-22 00:30N 36°58' E 025°02'0 0.0
2014-Sep-21 23:30N 36°58' E 025°02'0 0.0
2014-Sep-21 22:18N 36°58' E 025°02'0 0.0
2014-Sep-21 21:30N 36°58' E 025°02'0 0.0
2014-Sep-21 20:30N 36°58' E 025°02'0 0.0
2014-Sep-21 19:30N 36°58' E 025°02'0 0.0
2014-Sep-21 18:24N 36°58' E 025°02'0 0.0
2014-Sep-21 17:30N 36°58' E 025°02'0 0.0
2014-Sep-21 16:30N 36°58' E 025°02'0 0.0
2014-Sep-21 15:30N 36°58' E 025°02'1 1.5
2014-Sep-21 14:32N 36°57' E 025°02'2 2.5
2014-Sep-21 13:33N 36°56' E 024°59'6 5.9
2014-Sep-21 12:32N 36°55' E 024°51'  

Dump ship's entire track history